Time;durP1;ratioP1;P1;durP2;ratioP2;P2;SDS_P1;SDS_P2;PMS_P1;PMS_P2;Temp;Humidity;BMP_temperature;BMP_pressure;BME280_temperature;BME280_humidity;BME280_pressure;Samples;Min_cycle;Max_cycle;Signal;HPM_P1;HPM_P2
2022/10/06 00:00:29;;;;;;;6.82;4.63;;;;;;;16.08;84.69;100960.78;5041940;28;20056;-75
2022/10/06 00:02:54;;;;;;;6.72;5.40;;;;;;;16.02;85.43;100960.91;5045365;28;20095;-75
2022/10/06 00:05:19;;;;;;;5.53;4.82;;;;;;;16.00;85.88;100960.06;5042576;28;20045;-75
2022/10/06 00:07:45;;;;;;;8.27;5.45;;;;;;;15.96;86.30;100955.75;5043976;28;20079;-75
2022/10/06 00:10:10;;;;;;;8.88;5.70;;;;;;;16.02;85.98;100963.59;5041397;28;20033;-75
2022/10/06 00:12:43;;;;;;;5.95;5.07;;;;;;;16.03;85.87;100965.31;5039672;28;20059;-75
2022/10/06 00:15:10;;;;;;;6.18;5.57;;;;;;;16.05;86.14;100962.63;5041911;28;20503;-75
2022/10/06 00:17:36;;;;;;;5.60;5.10;;;;;;;16.17;85.15;100957.91;5045747;28;20147;-76
2022/10/06 00:20:02;;;;;;;8.45;7.22;;;;;;;16.17;85.39;100965.03;5048963;28;20033;-75
2022/10/06 00:22:37;;;;;;;6.68;5.35;;;;;;;16.35;84.18;100958.44;5051520;28;20049;-75
2022/10/06 00:25:04;;;;;;;6.07;5.47;;;;;;;16.35;84.18;100959.28;5041969;28;20037;-75
2022/10/06 00:27:38;;;;;;;8.07;5.50;;;;;;;16.39;83.55;100962.75;5048296;28;20116;-75
2022/10/06 00:30:05;;;;;;;6.30;5.30;;;;;;;16.39;83.54;100970.75;5043269;28;20048;-75
2022/10/06 00:32:30;;;;;;;5.55;5.05;;;;;;;16.35;83.70;100975.28;5045060;28;20041;-75
2022/10/06 00:34:57;;;;;;;6.15;5.50;;;;;;;16.38;83.51;100969.88;5037369;28;20446;-75
2022/10/06 00:37:24;;;;;;;5.70;5.20;;;;;;;16.41;83.49;100974.25;5042506;28;20068;-75
2022/10/06 00:39:49;;;;;;;7.90;5.78;;;;;;;16.40;83.62;100983.13;5043992;28;20041;-75
2022/10/06 00:42:22;;;;;;;5.95;4.80;;;;;;;16.37;83.41;100983.22;5042347;28;20393;-75
2022/10/06 00:44:48;;;;;;;5.53;4.82;;;;;;;16.39;83.33;100986.72;5041523;28;20037;-75
2022/10/06 00:47:14;;;;;;;6.97;5.28;;;;;;;16.29;83.75;100993.16;5042075;28;20041;-75
2022/10/06 00:49:40;;;;;;;6.00;5.50;;;;;;;16.35;83.43;100995.72;5038452;28;20052;-75
2022/10/06 00:52:10;;;;;;;6.53;5.80;;;;;;;16.33;83.54;100992.19;5042217;28;20062;-75
2022/10/06 00:54:36;;;;;;;5.68;5.00;;;;;;;16.37;82.87;100988.53;5039700;28;20407;-75
2022/10/06 00:57:03;;;;;;;7.05;5.25;;;;;;;16.29;83.62;100988.72;5042335;28;20037;-75
2022/10/06 00:59:28;;;;;;;7.10;5.28;;;;;;;16.25;83.69;100987.03;5042459;28;20491;-75
2022/10/06 01:02:05;;;;;;;5.78;4.43;;;;;;;16.31;83.09;100999.34;5041164;28;20103;-75
2022/10/06 01:04:34;;;;;;;5.88;5.38;;;;;;;16.16;83.98;100993.44;5056232;28;20037;-75
2022/10/06 01:07:00;;;;;;;5.72;4.93;;;;;;;16.12;84.29;100993.56;5041666;28;20102;-75
2022/10/06 01:09:28;;;;;;;5.95;5.35;;;;;;;16.05;84.86;100991.91;5040275;28;20688;-75
2022/10/06 01:11:56;;;;;;;6.60;5.65;;;;;;;16.02;84.90;100992.88;5055385;28;20025;-75
2022/10/06 01:14:23;;;;;;;5.18;4.78;;;;;;;15.98;84.53;100994.72;5044000;28;20414;-75
2022/10/06 01:16:54;;;;;;;7.32;6.05;;;;;;;15.95;85.33;101001.88;5041102;28;20037;-75
2022/10/06 01:20:02;;;;;;;6.25;5.68;;;;;;;15.95;85.21;101015.19;5042038;28;20124;-75
2022/10/06 01:22:32;;;;;;;9.70;6.00;;;;;;;15.92;84.97;101012.59;5039157;28;20054;-75
2022/10/06 01:24:58;;;;;;;7.57;4.80;;;;;;;15.90;85.18;101019.72;5040670;28;20032;-75
2022/10/06 01:27:28;;;;;;;7.95;5.50;;;;;;;15.88;85.49;101021.56;5039830;28;20029;-75
2022/10/06 01:29:55;;;;;;;7.35;5.85;;;;;;;15.82;85.84;101025.19;5042420;28;20043;-75
2022/10/06 01:32:22;;;;;;;6.75;5.68;;;;;;;15.72;86.34;101024.53;5052867;28;20041;-75
2022/10/06 01:34:48;;;;;;;5.78;5.25;;;;;;;15.73;86.21;101031.59;5041052;28;20495;-75
2022/10/06 01:37:14;;;;;;;7.03;5.38;;;;;;;15.73;86.56;101036.03;5041766;28;20037;-75
2022/10/06 01:39:40;;;;;;;9.25;5.75;;;;;;;15.71;86.19;101045.84;5038381;28;20524;-75
2022/10/06 01:42:07;;;;;;;7.28;5.85;;;;;;;15.63;86.15;101043.28;5054443;28;20030;-75
2022/10/06 01:44:32;;;;;;;5.13;4.63;;;;;;;15.52;87.14;101050.59;5041741;28;20031;-75
2022/10/06 01:46:58;;;;;;;7.93;5.57;;;;;;;15.50;87.12;101052.41;5036388;28;20041;-75
2022/10/06 01:49:23;;;;;;;6.18;5.03;;;;;;;15.44;87.75;101057.84;5041717;28;20033;-75
2022/10/06 01:51:49;;;;;;;6.82;5.10;;;;;;;15.41;88.07;101047.25;5041670;28;20116;-75
2022/10/06 01:54:15;;;;;;;5.95;4.95;;;;;;;15.40;88.74;101051.69;5044343;28;20033;-75
2022/10/06 01:56:41;;;;;;;8.77;5.72;;;;;;;15.42;88.48;101064.97;5043086;28;20412;-75
2022/10/06 01:59:06;;;;;;;5.15;4.65;;;;;;;15.44;88.51;101057.84;5035695;28;20055;-75
2022/10/06 02:01:32;;;;;;;6.57;5.15;;;;;;;15.43;88.51;101056.06;5039293;28;20385;-75
2022/10/06 02:03:57;;;;;;;6.78;5.38;;;;;;;15.42;88.74;101055.19;5041625;28;20037;-75
2022/10/06 02:06:25;;;;;;;8.25;5.03;;;;;;;15.40;89.02;101057.00;5037278;28;20041;-75
2022/10/06 02:08:50;;;;;;;6.82;4.80;;;;;;;15.46;89.06;101062.22;5037883;28;20037;-75
2022/10/06 02:11:17;;;;;;;6.88;5.50;;;;;;;15.49;88.58;101048.00;5049427;28;20048;-75
2022/10/06 02:13:43;;;;;;;7.25;5.00;;;;;;;15.49;88.44;101055.97;5035792;28;20037;-75
2022/10/06 02:16:10;;;;;;;6.68;5.00;;;;;;;15.50;88.46;101057.72;5039370;28;20060;-75
2022/10/06 02:18:36;;;;;;;5.35;4.85;;;;;;;15.54;88.28;101054.13;5039751;28;20032;-75
2022/10/06 02:21:02;;;;;;;6.65;5.32;;;;;;;15.66;88.11;101059.19;5041456;28;20079;-75
2022/10/06 02:23:29;;;;;;;8.68;5.22;;;;;;;15.74;87.78;101043.97;5038403;28;20052;-75
2022/10/06 02:26:03;;;;;;;11.48;6.07;;;;;;;15.82;87.10;101048.28;5038317;28;20062;-75
2022/10/06 02:28:29;;;;;;;10.45;6.22;;;;;;;15.74;87.08;101027.16;5039409;28;20041;-75
2022/10/06 02:31:06;;;;;;;6.47;5.30;;;;;;;15.61;87.03;101031.78;5037681;28;20037;-75
2022/10/06 02:33:32;;;;;;;7.30;6.07;;;;;;;15.49;86.99;101034.69;5039326;28;20029;-75
2022/10/06 02:35:58;;;;;;;6.13;5.60;;;;;;;15.37;87.77;101030.47;5039753;28;20064;-75
2022/10/06 02:38:26;;;;;;;5.88;4.80;;;;;;;15.23;88.49;101044.00;5037410;28;20029;-75
2022/10/06 02:40:52;;;;;;;5.35;4.85;;;;;;;15.18;89.09;101061.81;5038079;28;20037;-76
2022/10/06 02:43:18;;;;;;;6.53;5.28;;;;;;;15.16;89.21;101068.94;5054961;28;20048;-75
2022/10/06 02:45:52;;;;;;;7.13;5.55;;;;;;;15.12;89.99;101069.91;5040331;28;20041;-75
2022/10/06 02:48:17;;;;;;;5.93;4.93;;;;;;;15.15;90.26;101071.63;5037311;28;20034;-75
2022/10/06 02:50:44;;;;;;;11.85;5.45;;;;;;;15.13;90.85;101082.28;5041109;28;20403;-75
2022/10/06 02:53:09;;;;;;;6.28;5.68;;;;;;;15.11;90.60;101086.75;5040122;28;20030;-76
2022/10/06 02:55:34;;;;;;;5.93;5.10;;;;;;;15.11;90.35;101086.75;5045712;28;20517;-75
2022/10/06 02:58:01;;;;;;;5.82;5.32;;;;;;;15.04;90.80;101093.97;5044487;28;20041;-75
2022/10/06 03:00:26;;;;;;;7.15;5.78;;;;;;;15.05;91.28;101108.13;5046584;28;20029;-75
2022/10/06 03:02:52;;;;;;;8.25;5.38;;;;;;;15.05;91.48;101094.81;5042780;28;20062;-75
2022/10/06 03:05:18;;;;;;;6.07;5.57;;;;;;;15.04;91.49;101101.06;5057824;28;20034;-75
2022/10/06 03:07:44;;;;;;;7.03;5.50;;;;;;;15.02;91.42;101098.41;5049835;28;20407;-75
2022/10/06 03:10:09;;;;;;;6.93;6.03;;;;;;;15.09;91.49;101105.41;5041223;28;20021;-75
2022/10/06 03:12:35;;;;;;;9.73;6.60;;;;;;;15.08;91.13;101105.41;5052621;28;20517;-75
2022/10/06 03:15:01;;;;;;;9.23;6.38;;;;;;;15.04;92.19;101109.91;5043263;28;20061;-75
2022/10/06 03:17:26;;;;;;;8.63;6.65;;;;;;;15.05;91.86;101111.66;5040549;28;20053;-75
2022/10/06 03:19:55;;;;;;;10.13;5.82;;;;;;;15.07;91.90;101122.28;5047663;28;20037;-75
2022/10/06 03:22:21;;;;;;;8.77;6.07;;;;;;;15.04;91.66;101122.31;5054439;28;20044;-75
2022/10/06 03:24:52;;;;;;;8.30;6.35;;;;;;;15.10;91.98;101124.88;5043421;28;20089;-75
2022/10/06 03:27:19;;;;;;;8.05;5.93;;;;;;;15.16;91.43;101122.13;5025784;28;20495;-75
2022/10/06 03:29:45;;;;;;;7.80;5.93;;;;;;;15.19;91.40;101127.38;5040853;28;20139;-75
2022/10/06 03:32:11;;;;;;;6.82;5.88;;;;;;;15.25;91.13;101131.75;5044723;28;20463;-75
2022/10/06 03:34:37;;;;;;;8.30;6.03;;;;;;;15.33;90.87;101137.81;5038548;28;20030;-75
2022/10/06 03:37:05;;;;;;;11.25;5.57;;;;;;;15.39;90.89;101136.84;5042383;28;20500;-75
2022/10/06 03:39:32;;;;;;;7.22;5.18;;;;;;;15.53;90.07;101137.47;5044364;28;20044;-74
2022/10/06 03:41:58;;;;;;;10.23;5.53;;;;;;;15.69;88.91;101133.69;5042990;28;20029;-75
2022/10/06 03:44:24;;;;;;;5.45;4.95;;;;;;;15.83;87.34;101143.22;5041306;28;20048;-75
2022/10/06 03:46:50;;;;;;;8.32;5.93;;;;;;;15.95;87.39;101141.19;5041264;28;20411;-75
2022/10/06 03:49:15;;;;;;;6.22;5.63;;;;;;;16.06;86.47;101138.34;5044738;28;20510;-75
2022/10/06 03:51:41;;;;;;;6.03;5.43;;;;;;;16.12;86.19;101140.00;5039110;28;20064;-75
2022/10/06 03:54:11;;;;;;;8.23;5.35;;;;;;;16.12;85.41;101138.22;5045365;28;20029;-75
2022/10/06 03:56:40;;;;;;;8.45;5.50;;;;;;;16.17;85.37;101149.66;5040733;28;20112;-75
2022/10/06 03:59:09;;;;;;;5.50;5.00;;;;;;;16.21;85.17;101154.00;5042568;28;20060;-75
2022/10/06 04:01:39;;;;;;;6.40;4.95;;;;;;;16.27;85.56;101155.69;5042650;28;20028;-74
2022/10/06 04:04:06;;;;;;;6.45;5.18;;;;;;;16.36;84.92;101159.94;5040136;28;20566;-75
2022/10/06 04:06:34;;;;;;;5.38;4.88;;;;;;;16.44;84.32;101163.31;5040385;28;20057;-75
2022/10/06 04:09:00;;;;;;;5.43;4.93;;;;;;;16.55;83.54;101169.31;5042663;28;20583;-74
2022/10/06 04:11:31;;;;;;;5.28;4.65;;;;;;;16.63;82.59;101171.81;5043291;28;20108;-75
2022/10/06 04:14:02;;;;;;;8.00;5.00;;;;;;;16.69;82.86;101168.13;5052182;28;20443;-75
2022/10/06 04:16:34;;;;;;;5.30;4.80;;;;;;;16.81;81.46;101174.13;5057475;28;20121;-75
2022/10/06 04:19:04;;;;;;;6.05;4.57;;;;;;;16.90;81.05;101181.06;5041842;28;20033;-75
2022/10/06 04:21:35;;;;;;;5.05;4.55;;;;;;;16.96;80.99;101182.72;5039449;28;20104;-75
2022/10/06 04:24:01;;;;;;;6.78;4.78;;;;;;;16.92;81.06;101179.22;5040950;28;20484;-75
2022/10/06 04:26:30;;;;;;;5.97;5.38;;;;;;;16.93;80.99;101180.13;5046298;28;20033;-75
2022/10/06 04:28:56;;;;;;;6.25;4.75;;;;;;;16.91;81.10;101182.81;5041375;28;20120;-75
2022/10/06 04:31:26;;;;;;;5.88;4.80;;;;;;;16.92;80.75;101186.34;5043145;28;20030;-75
2022/10/06 04:33:55;;;;;;;6.07;4.43;;;;;;;16.96;80.67;101175.56;5040394;28;20495;-75
2022/10/06 04:36:24;;;;;;;8.25;5.45;;;;;;;16.96;80.26;101186.25;5041502;28;20068;-75
2022/10/06 04:38:55;;;;;;;5.53;4.90;;;;;;;16.93;80.34;101180.97;5053089;28;20029;-75
2022/10/06 04:41:23;;;;;;;6.45;4.50;;;;;;;16.86;80.48;101185.56;5059915;28;20056;-75
2022/10/06 04:43:50;;;;;;;7.75;5.30;;;;;;;16.82;80.98;101199.88;5040777;28;20037;-75
2022/10/06 04:46:16;;;;;;;5.05;4.43;;;;;;;16.84;81.22;101194.50;5049208;28;20042;-75
2022/10/06 04:48:42;;;;;;;5.50;4.53;;;;;;;16.82;nan;101198.97;5047611;28;20033;-75
2022/10/06 04:51:14;;;;;;;4.75;4.25;;;;;;;16.85;81.42;101215.81;5039838;28;20072;-75
2022/10/06 04:53:39;;;;;;;6.13;5.45;;;;;;;16.88;81.14;101219.31;5042320;28;20029;-75
2022/10/06 04:56:09;;;;;;;5.30;4.80;;;;;;;16.94;80.58;101225.38;5039048;28;20040;-75
2022/10/06 04:58:41;;;;;;;5.30;4.82;;;;;;;17.12;79.93;101255.25;5063537;28;20033;-75
2022/10/06 05:01:17;;;;;;;6.75;5.28;;;;;;;17.18;78.98;101265.78;5061961;28;20025;-75
2022/10/06 05:03:44;;;;;;;9.40;5.60;;;;;;;17.11;79.29;101285.47;5051606;28;20067;-75
2022/10/06 05:06:21;;;;;;;7.55;5.03;;;;;;;17.04;79.41;101290.94;5063576;28;20056;-75
2022/10/06 05:08:48;;;;;;;5.30;4.90;;;;;;;16.99;79.35;101314.16;5045978;28;20086;-75
2022/10/06 05:11:14;;;;;;;7.05;5.03;;;;;;;16.83;77.71;101318.06;5037043;28;20122;-75
2022/10/06 05:13:39;;;;;;;9.15;8.23;;;;;;;16.71;77.58;101329.78;5039834;28;20543;-75
2022/10/06 05:16:09;;;;;;;5.70;4.68;;;;;;;16.70;77.97;101321.84;5038577;28;20033;-75
2022/10/06 05:18:35;;;;;;;5.15;4.65;;;;;;;16.60;76.20;101321.13;5045255;28;20040;-74
2022/10/06 05:21:07;;;;;;;4.88;4.32;;;;;;;16.57;76.21;101353.16;5046390;28;20063;-74
2022/10/06 05:23:36;;;;;;;4.82;4.35;;;;;;;16.50;75.90;101349.69;5041839;28;20615;-75
2022/10/06 05:26:03;;;;;;;6.88;4.07;;;;;;;16.44;75.15;101356.03;5056335;28;20151;-75
2022/10/06 05:28:30;;;;;;;4.85;4.35;;;;;;;16.46;72.94;101353.34;5042793;28;20029;-75
2022/10/06 05:31:02;;;;;;;4.53;4.13;;;;;;;16.48;73.14;101358.63;5040617;28;20051;-75
2022/10/06 05:33:31;;;;;;;5.18;4.53;;;;;;;16.37;72.36;101367.72;5051653;28;20033;-75
2022/10/06 05:35:58;;;;;;;4.90;4.50;;;;;;;16.38;70.42;101380.13;5060220;28;20395;-75
2022/10/06 05:38:26;;;;;;;5.38;4.75;;;;;;;16.35;69.66;101368.66;5044965;28;20037;-75
2022/10/06 05:41:03;;;;;;;8.13;4.70;;;;;;;16.25;69.34;101375.03;5044548;28;20060;-75
2022/10/06 05:43:28;;;;;;;4.85;4.53;;;;;;;16.19;68.87;101382.22;5039667;28;20076;-75
2022/10/06 05:45:56;;;;;;;6.07;4.47;;;;;;;16.19;69.25;101395.53;5043386;28;20067;-74
2022/10/06 05:48:21;;;;;;;6.78;6.05;;;;;;;16.20;68.40;101396.41;5024756;28;20028;-74
2022/10/06 05:50:48;;;;;;;5.38;4.93;;;;;;;16.18;68.12;101415.06;5042668;28;20056;-75
2022/10/06 05:53:14;;;;;;;5.15;4.72;;;;;;;16.15;65.96;101419.56;5040341;28;20052;-75
2022/10/06 05:55:39;;;;;;;4.68;4.38;;;;;;;16.06;66.34;101438.31;5054909;28;20029;-75
2022/10/06 05:58:05;;;;;;;7.22;6.60;;;;;;;16.03;63.70;101462.31;5041914;28;20036;-75
2022/10/06 06:00:30;;;;;;;7.45;4.68;;;;;;;15.99;63.99;101451.72;5044613;28;20021;-75
2022/10/06 06:02:56;;;;;;;5.88;4.80;;;;;;;15.88;65.38;101488.28;5053405;28;20033;-75
2022/10/06 06:05:21;;;;;;;6.28;5.72;;;;;;;15.71;65.91;101461.84;5041573;28;20108;-74
2022/10/06 06:07:47;;;;;;;5.15;4.75;;;;;;;15.49;67.30;101470.97;5041010;28;20033;-75
2022/10/06 06:10:12;;;;;;;6.63;6.03;;;;;;;15.11;67.79;101466.94;5045539;28;20033;-75
2022/10/06 06:12:38;;;;;;;4.88;4.55;;;;;;;15.04;67.93;101484.75;5053015;28;20071;-75
2022/10/06 06:18:03;;;;;;;4.68;4.28;;;;;;;14.95;67.40;101481.28;5044843;28;20029;-74
2022/10/06 06:20:28;;;;;;;5.63;5.13;;;;;;;15.00;66.84;101495.41;5039451;28;20041;-74
2022/10/06 06:22:54;;;;;;;8.25;4.63;;;;;;;15.00;66.75;101487.44;5057844;28;20045;-75
2022/10/06 06:25:23;;;;;;;4.80;4.38;;;;;;;15.07;66.85;101499.78;5045125;28;20398;-74
2022/10/06 06:27:48;;;;;;;4.57;4.18;;;;;;;15.09;66.30;101508.59;5043883;28;20041;-75
2022/10/06 06:30:15;;;;;;;5.00;4.60;;;;;;;15.13;66.29;101511.22;5040756;28;20118;-75
2022/10/06 06:32:41;;;;;;;5.18;4.30;;;;;;;15.15;66.48;101520.97;5038643;28;20033;-74
2022/10/06 06:35:07;;;;;;;6.72;4.68;;;;;;;15.15;66.81;101521.84;5041332;28;20036;-75
2022/10/06 06:37:32;;;;;;;7.68;4.28;;;;;;;15.13;67.02;101529.84;5041247;28;20430;-75
2022/10/06 06:39:58;;;;;;;8.10;6.32;;;;;;;15.17;66.53;101553.72;5041896;28;20120;-75
2022/10/06 06:42:24;;;;;;;4.97;4.57;;;;;;;15.14;66.57;101546.66;5044619;28;20095;-75
2022/10/06 06:45:03;;;;;;;4.78;4.38;;;;;;;15.09;67.51;101567.09;5042754;28;20029;-75
2022/10/06 06:47:33;;;;;;;7.35;6.82;;;;;;;15.03;68.17;101569.81;5041657;28;20030;-75
2022/10/06 06:49:59;;;;;;;6.32;3.90;;;;;;;15.00;68.92;101562.75;5039411;28;20032;-75
2022/10/06 06:52:26;;;;;;;5.07;4.57;;;;;;;15.05;69.22;101573.34;5037292;28;20034;-75
2022/10/06 06:54:52;;;;;;;6.18;4.38;;;;;;;15.06;69.55;101580.41;5042664;28;20124;-75
2022/10/06 06:57:18;;;;;;;4.65;4.22;;;;;;;15.05;70.13;101576.00;5043256;28;20462;-74
2022/10/06 06:59:44;;;;;;;5.05;4.15;;;;;;;15.07;70.13;101584.84;5042423;28;20058;-75
2022/10/06 07:02:11;;;;;;;4.65;4.25;;;;;;;15.05;71.52;101598.16;5039562;28;20040;-75
2022/10/06 07:04:39;;;;;;;5.80;5.20;;;;;;;15.11;71.89;101597.22;5038448;28;20033;-75
2022/10/06 07:07:09;;;;;;;4.50;4.10;;;;;;;15.09;72.40;101599.91;5037210;28;20086;-75
2022/10/06 07:09:35;;;;;;;7.20;5.65;;;;;;;15.02;73.78;101605.28;5041535;28;20041;-75
2022/10/06 07:12:04;;;;;;;4.50;4.13;;;;;;;14.99;74.31;101608.84;5039362;28;20036;-75
2022/10/06 07:14:30;;;;;;;10.93;4.78;;;;;;;15.07;75.00;101622.06;5053371;28;20034;-75
2022/10/06 07:25:11;;;;;;;5.97;4.80;;;;;;;14.88;78.87;101624.88;5037812;28;20041;-75
2022/10/06 07:27:45;;;;;;;5.55;4.57;;;;;;;14.88;79.84;101634.59;5038615;28;20053;-75
2022/10/06 07:30:24;;;;;;;6.70;4.47;;;;;;;14.89;80.18;101645.22;5037348;28;20079;-75
2022/10/06 07:33:00;;;;;;;8.13;4.65;;;;;;;14.76;81.70;101648.84;5037811;28;20120;-74
2022/10/06 07:35:26;;;;;;;5.65;4.45;;;;;;;14.88;80.64;101640.81;5043850;28;20056;-75
2022/10/06 07:37:52;;;;;;;4.60;4.20;;;;;;;14.96;80.63;101645.16;5040030;28;20033;-75
2022/10/06 07:40:18;;;;;;;7.32;4.68;;;;;;;15.10;80.25;101651.28;5033476;28;20033;-75
2022/10/06 07:42:47;;;;;;;5.22;4.30;;;;;;;15.12;79.36;101652.19;5040238;28;20064;-75
2022/10/06 07:48:00;;;;;;;8.18;4.43;;;;;;;15.28;77.75;101669.78;5040541;28;20075;-74
2022/10/06 07:50:26;;;;;;;7.22;4.60;;;;;;;15.24;77.54;101675.13;5050698;28;20028;-75
2022/10/06 07:52:52;;;;;;;7.45;4.45;;;;;;;15.44;76.56;101674.97;5044604;28;20049;-75
2022/10/06 07:55:17;;;;;;;6.30;5.75;;;;;;;15.45;76.67;101680.28;5042748;28;20034;-75
2022/10/06 07:58:18;;;;;;;6.43;4.22;;;;;;;15.59;75.45;101693.50;5045310;28;20457;-75
2022/10/06 08:00:45;;;;;;;5.38;4.75;;;;;;;15.61;74.98;101698.78;5047837;28;20037;-75
2022/10/06 08:03:18;;;;;;;5.63;3.88;;;;;;;15.63;74.18;101697.88;5044077;28;20557;-75
2022/10/06 08:05:45;;;;;;;8.55;5.28;;;;;;;15.71;73.52;101695.19;5044098;28;20033;-75
2022/10/06 08:08:10;;;;;;;9.77;4.70;;;;;;;15.83;72.14;101699.53;5043489;28;20487;-75
2022/10/06 08:10:35;;;;;;;7.68;4.82;;;;;;;15.92;71.76;101720.72;5041417;28;20053;-75
2022/10/06 08:13:04;;;;;;;5.40;4.90;;;;;;;15.90;70.32;101711.84;5041924;28;20045;-75
2022/10/06 08:15:29;;;;;;;5.40;4.90;;;;;;;15.98;70.75;101716.22;5043877;28;20040;-75
2022/10/06 08:17:57;;;;;;;5.15;4.65;;;;;;;16.10;70.62;101714.34;5043622;28;20419;-75
2022/10/06 08:20:23;;;;;;;5.45;4.93;;;;;;;16.18;69.03;101745.31;5048344;28;20039;-75
2022/10/06 08:22:48;;;;;;;10.80;5.90;;;;;;;16.13;69.05;101725.81;5041767;28;20041;-75
2022/10/06 08:25:13;;;;;;;6.35;5.85;;;;;;;16.21;68.51;101729.28;5043720;28;20487;-75
2022/10/06 08:27:42;;;;;;;6.97;6.28;;;;;;;16.20;67.28;101737.31;5041887;28;20068;-75
2022/10/06 08:30:09;;;;;;;7.38;5.63;;;;;;;16.02;66.98;101732.16;5043203;28;20072;-75
2022/10/06 08:32:34;;;;;;;8.70;5.63;;;;;;;16.07;67.06;101731.22;5044099;28;20508;-75
2022/10/06 08:35:00;;;;;;;7.22;5.35;;;;;;;16.10;66.98;101741.84;5045508;28;20033;-75
2022/10/06 08:37:26;;;;;;;5.10;4.60;;;;;;;15.99;66.58;101741.06;5044973;28;20475;-75
2022/10/06 08:39:54;;;;;;;6.90;4.90;;;;;;;15.73;66.57;101744.84;5040663;28;20041;-75
2022/10/06 08:42:41;;;;;;;6.95;5.30;;;;;;;15.56;65.79;101741.38;5043278;28;20053;-75
2022/10/06 08:45:32;;;;;;;11.00;6.82;;;;;;;15.67;65.74;101767.94;5042053;28;20040;-74
2022/10/06 08:48:18;;;;;;;7.90;7.15;;;;;;;15.77;63.77;101751.00;5035183;28;20045;-75
2022/10/06 08:51:02;;;;;;;9.07;6.25;;;;;;;15.87;64.46;101755.38;5041529;28;20038;-75
2022/10/06 08:53:38;;;;;;;6.85;6.22;;;;;;;16.18;62.81;101763.06;5041079;28;20120;-74
2022/10/06 08:56:16;;;;;;;9.35;6.53;;;;;;;16.37;63.03;101764.69;5042248;28;20083;-75
2022/10/06 08:58:57;;;;;;;8.90;6.22;;;;;;;16.50;61.35;101768.06;5041500;28;20038;-75
2022/10/06 09:01:27;;;;;;;7.85;6.95;;;;;;;16.69;60.63;101765.19;5041172;28;20044;-75
2022/10/06 09:03:55;;;;;;;6.68;6.00;;;;;;;16.71;60.67;101776.72;5046255;28;20037;-75
2022/10/06 09:06:28;;;;;;;6.68;6.10;;;;;;;16.51;61.26;101764.50;5044222;28;20049;-75
2022/10/06 09:08:59;;;;;;;6.28;5.35;;;;;;;16.48;64.55;101761.91;5039810;28;20037;-75
2022/10/06 09:11:53;;;;;;;7.68;5.32;;;;;;;16.54;66.03;101768.94;5042211;28;20095;-75
2022/10/06 09:14:27;;;;;;;6.60;5.88;;;;;;;16.69;66.06;101771.44;5045048;28;20045;-75
2022/10/06 09:16:59;;;;;;;6.18;5.68;;;;;;;16.74;66.21;101772.25;5039019;28;20399;-75
2022/10/06 09:19:37;;;;;;;;;;;;;;;16.89;63.97;101781.00;5043415;28;20172;-74
2022/10/06 09:22:05;;;;;;;6.47;5.82;;;;;;;17.20;63.32;101781.47;5071799;22;19927;-80
2022/10/06 09:24:37;;;;;;;6.88;5.68;;;;;;;17.52;61.35;101771.19;5065456;28;20051;-78
2022/10/06 09:27:21;;;;;;;;;;;;;;;17.45;62.10;101788.22;5071838;28;20402;-78
2022/10/06 09:29:47;;;;;;;6.20;5.47;;;;;;;17.63;61.72;101796.84;5065762;28;20388;-78
2022/10/06 09:32:14;;;;;;;12.30;6.28;;;;;;;17.44;60.36;101791.78;5064799;28;20115;-78
2022/10/06 09:34:45;;;;;;;7.85;7.22;;;;;;;17.28;59.85;101800.91;5075590;28;20556;-78
2022/10/06 09:37:12;;;;;;;7.53;6.77;;;;;;;17.35;60.30;101802.59;5059600;28;20145;-78
2022/10/06 09:39:40;;;;;;;6.07;5.57;;;;;;;17.31;60.76;101804.41;5066577;28;20413;-78
2022/10/06 09:42:08;;;;;;;9.55;8.80;;;;;;;17.26;61.90;101800.06;5069628;28;20047;-78
2022/10/06 09:44:39;;;;;;;6.88;5.40;;;;;;;17.44;61.71;101798.91;5063037;28;20071;-78
2022/10/06 09:47:35;;;;;;;6.53;5.90;;;;;;;17.18;61.77;101810.81;5063700;28;20399;-78
2022/10/06 09:50:24;;;;;;;6.68;6.07;;;;;;;17.13;62.18;101811.78;5061561;28;20538;-78
2022/10/06 09:53:04;;;;;;;10.50;6.32;;;;;;;17.28;59.51;101822.28;5066482;28;20537;-78
2022/10/06 09:55:35;;;;;;;8.68;6.18;;;;;;;17.34;60.03;101823.97;5064126;28;20377;-79
2022/10/06 09:58:01;;;;;;;6.00;5.50;;;;;;;17.24;61.07;101816.09;5060590;28;20487;-78
2022/10/06 10:00:37;;;;;;;6.47;5.90;;;;;;;17.33;60.33;101822.22;5068826;28;20169;-78
2022/10/06 10:03:09;;;;;;;6.72;6.13;;;;;;;17.44;59.78;101813.13;5063392;28;20650;-79
2022/10/06 10:05:37;;;;;;;9.00;6.80;;;;;;;17.45;59.52;101836.28;5062686;28;20498;-76
2022/10/06 10:08:20;;;;;;;6.25;5.65;;;;;;;17.62;58.48;101829.81;5063531;28;20693;-76
2022/10/06 10:10:47;;;;;;;6.13;5.53;;;;;;;17.59;57.86;101835.19;5064811;28;20028;-77
2022/10/06 10:13:23;;;;;;;6.82;6.28;;;;;;;17.51;56.08;101840.63;5071290;28;20043;-77
2022/10/06 10:15:59;;;;;;;7.60;7.03;;;;;;;17.19;56.21;101849.09;5067940;28;20028;-76
2022/10/06 10:18:29;;;;;;;6.97;6.38;;;;;;;16.99;56.32;101839.53;5062383;28;20066;-76
2022/10/06 10:21:06;;;;;;;8.40;6.60;;;;;;;16.89;55.63;101851.19;5085051;28;20620;-76
2022/10/06 10:23:39;;;;;;;9.23;6.22;;;;;;;16.91;56.93;101849.41;5066433;28;20052;-77
2022/10/06 10:26:31;;;;;;;10.40;9.32;;;;;;;17.18;55.55;101849.97;5063409;28;20507;-76
2022/10/06 10:29:09;;;;;;;7.63;6.95;;;;;;;17.40;54.99;101843.47;5059406;28;20033;-76
2022/10/06 10:32:01;;;;;;;7.78;7.07;;;;;;;17.78;54.71;101843.81;5059268;28;20040;-76
2022/10/06 10:34:26;;;;;;;;;;;;;;;17.67;53.27;101858.19;5060495;28;20064;-76
2022/10/06 10:36:58;;;;;;;7.18;5.20;;;;;;;17.46;53.73;101848.69;5064756;28;20294;-76
2022/10/06 10:39:40;;;;;;;6.68;6.13;;;;;;;17.41;54.57;101857.69;5062155;28;20443;-76
2022/10/06 10:42:19;;;;;;;7.88;7.18;;;;;;;17.70;53.84;101854.59;5066097;28;20116;-76
2022/10/06 10:44:59;;;;;;;7.25;6.55;;;;;;;17.98;53.78;101849.75;5060312;28;20037;-76
2022/10/06 10:47:29;;;;;;;9.45;8.57;;;;;;;18.01;52.42;101864.84;5063582;28;20029;-76
2022/10/06 10:50:04;;;;;;;7.65;6.95;;;;;;;18.15;51.90;101861.03;5068768;28;20036;-76
2022/10/06 10:52:34;;;;;;;9.82;6.85;;;;;;;18.28;50.25;101859.03;5069872;28;20047;-76
2022/10/06 10:55:18;;;;;;;7.50;6.93;;;;;;;18.35;49.95;101868.72;5066921;28;20554;-76
2022/10/06 10:57:45;;;;;;;7.32;6.57;;;;;;;18.06;50.45;101853.19;5060813;28;20114;-76
2022/10/06 11:00:21;;;;;;;6.07;5.50;;;;;;;17.96;51.52;101871.13;5064413;28;20554;-76
2022/10/06 11:02:50;;;;;;;8.95;5.78;;;;;;;17.83;49.01;101880.25;5066793;28;20139;-76
2022/10/06 11:05:41;;;;;;;12.55;11.63;;;;;;;17.70;47.88;101873.28;5066743;28;20087;-76
2022/10/06 11:08:13;;;;;;;13.40;6.57;;;;;;;17.56;48.15;101883.28;5067427;28;20056;-76
2022/10/06 11:10:56;;;;;;;12.25;7.00;;;;;;;17.68;48.43;101877.75;5061873;28;20097;-76
2022/10/06 11:13:30;;;;;;;8.77;7.85;;;;;;;17.66;47.90;101874.25;5069754;28;20153;-76
2022/10/06 11:16:03;;;;;;;7.28;5.78;;;;;;;17.67;48.40;101876.00;5062828;28;20044;-76
2022/10/06 11:18:40;;;;;;;15.90;14.73;;;;;;;17.53;48.68;101870.88;5065341;28;20501;-76
2022/10/06 11:21:18;;;;;;;6.70;6.10;;;;;;;17.49;49.07;101878.00;5066240;28;20110;-76
2022/10/06 11:23:52;;;;;;;7.75;6.80;;;;;;;17.62;48.70;101875.19;5071973;28;20060;-76
2022/10/06 11:26:43;;;;;;;8.05;7.35;;;;;;;17.70;46.95;101874.16;5076221;28;20499;-76
2022/10/06 11:29:25;;;;;;;6.68;5.88;;;;;;;17.68;46.29;101883.09;5062829;28;20558;-76
2022/10/06 11:32:13;;;;;;;8.20;6.60;;;;;;;17.84;46.26;101891.81;5063913;28;20520;-76
2022/10/06 11:34:40;;;;;;;8.65;7.85;;;;;;;17.86;45.66;101890.88;5064218;28;20486;-76
2022/10/06 11:37:34;;;;;;;8.23;7.43;;;;;;;18.04;46.11;101878.16;5062386;28;20498;-75
2022/10/06 11:40:15;;;;;;;7.40;6.78;;;;;;;18.32;45.48;101878.59;5061389;28;20037;-76
2022/10/06 11:42:51;;;;;;;8.32;7.57;;;;;;;18.31;46.13;101876.81;5062930;28;20040;-76
2022/10/06 11:45:25;;;;;;;7.68;6.95;;;;;;;18.26;45.38;101882.25;5068744;28;20028;-76
2022/10/06 11:48:17;;;;;;;6.82;6.32;;;;;;;18.41;46.14;101878.44;5071162;28;20072;-75
2022/10/06 11:50:43;;;;;;;8.23;7.15;;;;;;;18.44;46.27;101874.81;5065645;28;20050;-76